Time;durP1;ratioP1;P1;durP2;ratioP2;P2;SDS_P1;SDS_P2;PMS_P1;PMS_P2;Temp;Humidity;BMP_temperature;BMP_pressure;BME280_temperature;BME280_humidity;BME280_pressure;Samples;Min_cycle;Max_cycle;Signal;HPM_P1;HPM_P2
2021/05/11 00:00:58;;;;;;;9.40;4.57;;;;;;;12.03;85.43;97643.19;4851773;29;20036;-79
2021/05/11 00:03:24;;;;;;;6.70;4.25;;;;;;;11.97;85.65;97630.19;4845934;29;20123;-79
2021/05/11 00:05:50;;;;;;;6.75;4.63;;;;;;;11.86;86.23;97625.56;4861791;29;20048;-79
2021/05/11 00:08:15;;;;;;;5.82;4.70;;;;;;;11.83;87.03;97624.91;4876947;29;20032;-79
2021/05/11 00:10:41;;;;;;;10.57;4.28;;;;;;;11.83;87.25;97635.63;4880893;29;20549;-80
2021/05/11 00:13:07;;;;;;;6.50;4.60;;;;;;;11.79;87.95;97634.09;4880914;29;20032;-79
2021/05/11 00:15:32;;;;;;;10.25;4.45;;;;;;;11.79;87.62;97634.09;4864463;29;20032;-79
2021/05/11 00:17:58;;;;;;;10.57;5.07;;;;;;;11.70;87.79;97623.97;4880118;29;20036;-79
2021/05/11 00:20:23;;;;;;;8.10;4.75;;;;;;;11.64;88.09;97625.19;4864232;29;20036;-79
2021/05/11 00:22:49;;;;;;;8.02;4.97;;;;;;;11.62;87.89;97632.50;4861244;29;20029;-79
2021/05/11 00:25:15;;;;;;;6.35;4.60;;;;;;;11.68;87.68;97624.06;4861161;29;20069;-80
2021/05/11 00:27:41;;;;;;;7.03;4.60;;;;;;;11.61;88.55;97627.22;4870646;29;20092;-79
2021/05/11 00:30:08;;;;;;;9.60;4.68;;;;;;;11.52;89.07;97619.78;4880056;29;20088;-79
2021/05/11 00:32:34;;;;;;;10.25;4.75;;;;;;;11.42;89.62;97630.22;4863893;29;20068;-79
2021/05/11 00:35:00;;;;;;;8.55;4.80;;;;;;;11.38;89.76;97624.19;4864253;29;20064;-79
2021/05/11 00:37:25;;;;;;;8.95;5.13;;;;;;;11.35;89.47;97626.22;4879588;29;20032;-80
2021/05/11 00:39:51;;;;;;;8.50;5.03;;;;;;;11.32;89.86;97629.94;4879650;29;20507;-79
2021/05/11 00:42:16;;;;;;;10.27;6.03;;;;;;;11.24;90.12;97621.53;4879520;29;20032;-79
2021/05/11 00:44:42;;;;;;;14.63;5.90;;;;;;;11.21;91.23;97620.88;4863722;29;20481;-79
2021/05/11 00:47:07;;;;;;;12.50;5.93;;;;;;;11.14;91.78;97627.56;4864220;29;20476;-80
2021/05/11 00:49:34;;;;;;;11.65;5.63;;;;;;;11.10;92.03;97626.91;4879569;29;20032;-78
2021/05/11 00:52:03;;;;;;;15.63;8.10;;;;;;;11.04;91.44;97618.41;4879413;29;20115;-79
2021/05/11 00:54:29;;;;;;;15.30;8.75;;;;;;;11.06;91.93;97641.44;4863517;29;20481;-79
2021/05/11 00:56:54;;;;;;;13.10;6.70;;;;;;;10.99;92.11;97640.09;4864589;29;20058;-79
2021/05/11 00:59:29;;;;;;;8.57;5.85;;;;;;;10.85;93.06;97634.75;4872566;29;20029;-79
2021/05/11 01:01:59;;;;;;;13.00;6.22;;;;;;;10.87;93.21;97635.50;4861923;29;20037;-79
2021/05/11 01:04:25;;;;;;;17.95;6.85;;;;;;;10.75;93.87;97633.59;4860629;29;20033;-79
2021/05/11 01:06:56;;;;;;;16.17;7.88;;;;;;;10.72;94.12;97628.41;4848231;29;20124;-79
2021/05/11 01:09:25;;;;;;;13.15;6.88;;;;;;;10.66;94.41;97623.44;4863970;29;20037;-78
2021/05/11 01:11:51;;;;;;;8.45;6.10;;;;;;;10.66;95.06;97623.44;4853149;29;20036;-79
2021/05/11 01:14:18;;;;;;;13.20;5.50;;;;;;;10.67;94.19;97634.06;4860581;29;20100;-79
2021/05/11 01:16:47;;;;;;;10.30;5.00;;;;;;;10.69;94.52;97626.81;4852903;29;20039;-79
2021/05/11 01:19:26;;;;;;;8.30;4.97;;;;;;;10.69;94.23;97626.81;4874528;29;20047;-79
2021/05/11 01:22:02;;;;;;;11.32;5.45;;;;;;;10.72;94.19;97626.63;4865237;29;20029;-79
2021/05/11 01:29:41;;;;;;;14.05;6.93;;;;;;;10.58;94.40;97615.88;4860627;29;20037;-79
2021/05/11 02:23:06;;;;;;;10.38;5.00;;;;;;;10.01;95.85;97598.81;4884676;29;20074;-79
2021/05/11 02:25:31;;;;;;;8.70;5.10;;;;;;;10.02;96.24;97602.34;4866353;29;20041;-80
2021/05/11 02:27:57;;;;;;;10.00;5.60;;;;;;;10.00;95.81;97598.88;4881625;29;20095;-79
2021/05/11 02:30:23;;;;;;;9.77;5.80;;;;;;;9.97;96.48;97599.94;4881624;29;20028;-79
2021/05/11 02:32:48;;;;;;;20.40;6.20;;;;;;;9.95;97.25;97601.84;4881413;29;20029;-80
2021/05/11 02:35:17;;;;;;;12.07;6.25;;;;;;;9.86;97.47;97601.53;4881957;29;20021;-79
2021/05/11 02:37:44;;;;;;;15.27;6.43;;;;;;;9.87;97.77;97603.25;4873799;29;20032;-79
2021/05/11 02:40:12;;;;;;;24.58;7.53;;;;;;;9.79;98.36;97601.88;4863057;29;20120;-79
2021/05/11 02:42:38;;;;;;;11.07;6.90;;;;;;;9.83;97.49;97607.91;4869987;29;20035;-79
2021/05/11 02:45:11;;;;;;;11.25;6.05;;;;;;;9.82;96.56;97608.84;4862961;29;20044;-79
2021/05/11 02:47:47;;;;;;;;;;;;;;;9.71;97.71;97601.47;4855013;29;20103;-79
2021/05/11 02:50:17;;;;;;;9.95;5.57;;;;;;;9.60;97.50;97598.53;4866835;29;19921;-79
2021/05/11 02:52:43;;;;;;;10.23;5.78;;;;;;;9.50;98.25;97597.38;4866222;29;20033;-77
2021/05/11 02:55:09;;;;;;;10.70;5.97;;;;;;;9.45;98.77;97602.09;4862691;29;20124;-79
2021/05/11 02:57:34;;;;;;;13.45;6.20;;;;;;;9.41;99.03;97605.03;4862437;29;20065;-79
2021/05/11 03:00:00;;;;;;;10.88;6.45;;;;;;;9.40;99.05;97601.50;4862149;29;20036;-78
2021/05/11 03:02:26;;;;;;;15.40;6.15;;;;;;;9.40;99.22;97600.63;4862688;29;20120;-78
2021/05/11 03:04:52;;;;;;;10.10;5.95;;;;;;;9.39;99.39;97602.44;4862689;29;20036;-77
2021/05/11 03:07:18;;;;;;;17.45;6.75;;;;;;;9.42;100.00;97607.59;4879927;29;20065;-79
2021/05/11 03:09:43;;;;;;;9.95;6.53;;;;;;;9.44;99.24;97610.19;4854526;29;20036;-80
2021/05/11 03:12:09;;;;;;;11.95;5.80;;;;;;;9.41;100.00;97605.03;4881002;29;20091;-79
2021/05/11 03:14:35;;;;;;;9.18;5.60;;;;;;;9.43;99.78;97600.44;4874676;29;20037;-80
2021/05/11 03:17:01;;;;;;;17.27;5.93;;;;;;;9.43;99.83;97601.31;4878846;29;20478;-79
2021/05/11 03:19:26;;;;;;;11.05;5.68;;;;;;;9.48;99.36;97606.38;4882764;29;20024;-79
2021/05/11 03:21:52;;;;;;;12.63;5.88;;;;;;;9.53;98.99;97596.31;4897517;29;20039;-79
2021/05/11 03:24:17;;;;;;;10.80;5.35;;;;;;;9.50;98.78;97608.03;4877405;29;20025;-81
2021/05/11 03:26:43;;;;;;;9.65;5.90;;;;;;;9.47;99.15;97602.88;4879847;29;20111;-81
2021/05/11 03:29:08;;;;;;;10.63;5.70;;;;;;;9.62;98.20;97611.81;4880190;29;20756;-79
2021/05/11 03:31:34;;;;;;;24.45;7.90;;;;;;;9.55;98.28;97615.78;4880920;29;20393;-80
2021/05/11 03:34:00;;;;;;;25.35;8.65;;;;;;;9.58;98.52;97616.47;4880659;29;20033;-80
2021/05/11 03:36:25;;;;;;;26.30;7.65;;;;;;;9.67;97.98;97617.75;4865475;29;20107;-80
2021/05/11 03:38:52;;;;;;;21.88;7.30;;;;;;;9.57;98.53;97613.88;4865141;29;20036;-81
2021/05/11 03:41:22;;;;;;;13.30;5.90;;;;;;;9.52;98.20;97621.28;4854488;29;20409;-82
2021/05/11 03:43:53;;;;;;;12.20;6.03;;;;;;;9.53;96.83;97621.22;4847253;29;20048;-81
2021/05/11 03:46:18;;;;;;;19.02;6.40;;;;;;;9.47;96.74;97620.69;4854576;29;20028;-81
2021/05/11 03:48:44;;;;;;;23.73;6.70;;;;;;;9.40;97.11;97619.31;4846304;29;20028;-82
2021/05/11 03:51:10;;;;;;;16.73;6.35;;;;;;;9.53;97.03;97628.38;4878302;29;20035;-80
2021/05/11 03:53:36;;;;;;;13.50;6.35;;;;;;;9.58;96.37;97627.16;4852916;29;20489;-80
2021/05/11 03:56:01;;;;;;;14.43;6.95;;;;;;;9.65;96.19;97630.34;4880382;29;20036;-80
2021/05/11 03:58:27;;;;;;;15.73;6.32;;;;;;;9.74;95.72;97621.78;4860642;29;20056;-80
2021/05/11 04:00:53;;;;;;;14.57;6.82;;;;;;;9.75;95.48;97623.53;4846228;29;20033;-79
2021/05/11 04:03:19;;;;;;;15.48;6.45;;;;;;;9.83;95.20;97626.63;4861170;29;20024;-82
2021/05/11 04:05:47;;;;;;;13.75;6.88;;;;;;;9.82;94.87;97614.19;4877517;29;20025;-80
2021/05/11 04:08:28;;;;;;;15.02;6.20;;;;;;;9.96;95.06;97626.75;4861783;29;20049;-79
2021/05/11 04:10:57;;;;;;;12.65;6.43;;;;;;;10.02;93.82;97613.91;4878256;29;20029;-79
2021/05/11 04:18:32;;;;;;;17.58;6.97;;;;;;;10.31;92.72;97609.53;4851038;29;20091;-80
2021/05/11 04:20:57;;;;;;;16.20;7.40;;;;;;;10.70;91.44;97625.00;4861579;29;20061;-79
2021/05/11 04:23:23;;;;;;;13.82;6.60;;;;;;;12.55;82.98;97620.94;4846030;29;20470;-80
2021/05/11 04:25:48;;;;;;;11.35;6.20;;;;;;;14.32;71.14;97621.44;4878420;29;20033;-83
2021/05/11 04:28:14;;;;;;;22.10;5.30;;;;;;;15.71;64.52;97619.38;4863467;29;20477;-81
2021/05/11 04:30:40;;;;;;;13.45;5.65;;;;;;;15.16;65.47;97627.44;4872286;29;20024;-84
2021/05/11 04:33:05;;;;;;;12.20;5.75;;;;;;;14.29;69.35;97627.06;4871713;29;20467;-80
2021/05/11 04:35:31;;;;;;;14.07;5.90;;;;;;;13.70;72.24;97620.72;4855788;29;20084;-81
2021/05/11 04:37:57;;;;;;;21.80;6.80;;;;;;;13.22;74.82;97617.97;4868376;29;20393;-80
2021/05/11 04:40:22;;;;;;;11.68;6.18;;;;;;;12.74;77.14;97613.31;4872432;29;20034;-79
2021/05/11 04:42:48;;;;;;;19.40;6.18;;;;;;;12.39;79.56;97613.06;4856624;29;20028;-78
2021/05/11 04:45:19;;;;;;;27.00;7.35;;;;;;;12.35;80.74;97617.78;4882011;29;20127;-79
2021/05/11 04:47:50;;;;;;;17.05;6.55;;;;;;;12.40;81.95;97618.31;4872239;29;20025;-79
2021/05/11 04:50:20;;;;;;;11.00;5.65;;;;;;;12.31;82.32;97616.25;4849736;29;20135;-79
2021/05/11 04:52:46;;;;;;;12.52;6.40;;;;;;;12.37;82.97;97614.97;4865951;29;20024;-79
2021/05/11 04:55:13;;;;;;;10.98;6.63;;;;;;;12.35;82.51;97612.41;4870677;29;20028;-78
2021/05/11 04:57:39;;;;;;;30.20;6.45;;;;;;;12.32;81.80;97617.13;4845198;29;20112;-79
2021/05/11 05:00:06;;;;;;;19.10;8.15;;;;;;;12.36;81.57;97616.81;4845200;29;20124;-79
2021/05/11 05:02:34;;;;;;;21.83;7.70;;;;;;;12.54;81.97;97621.88;4860736;29;20413;-79
2021/05/11 05:04:59;;;;;;;20.02;6.45;;;;;;;12.71;80.76;97621.56;4859531;29;20032;-80
2021/05/11 05:07:25;;;;;;;17.35;6.18;;;;;;;12.88;79.36;97626.63;4863609;29;20037;-78
2021/05/11 05:09:50;;;;;;;13.98;6.57;;;;;;;13.12;78.86;97624.94;4864058;29;20032;-78
2021/05/11 05:12:16;;;;;;;23.05;6.43;;;;;;;13.32;77.44;97627.06;4879132;29;20041;-77
2021/05/11 05:14:42;;;;;;;22.25;6.53;;;;;;;13.37;77.55;97619.53;4862727;29;20414;-79
2021/05/11 05:17:07;;;;;;;21.17;6.75;;;;;;;14.56;73.98;97628.53;4864920;29;20029;-78
2021/05/11 05:19:34;;;;;;;18.60;6.18;;;;;;;16.96;64.72;97630.44;4859611;29;20027;-78
2021/05/11 05:22:01;;;;;;;29.10;5.90;;;;;;;20.00;53.02;97640.84;4867797;29;20025;-78
2021/05/11 05:24:33;;;;;;;15.88;5.82;;;;;;;22.36;44.72;97639.84;4899510;29;20408;-78
2021/05/11 05:27:08;;;;;;;10.52;4.53;;;;;;;23.04;40.97;97634.19;4883804;29;20094;-77
2021/05/11 05:29:33;;;;;;;13.13;4.03;;;;;;;24.96;37.91;97646.53;4882477;29;20123;-78
2021/05/11 05:31:59;;;;;;;22.80;4.47;;;;;;;26.32;34.50;97641.63;4882863;29;20123;-78
2021/05/11 05:34:24;;;;;;;13.05;4.25;;;;;;;27.76;32.46;97647.78;4882564;29;20047;-79
2021/05/11 05:36:50;;;;;;;13.73;3.80;;;;;;;28.55;30.46;97651.00;4886635;29;20141;-80
2021/05/11 05:39:15;;;;;;;10.32;4.85;;;;;;;25.62;34.06;97651.31;4879183;29;20040;-79
2021/05/11 05:41:41;;;;;;;31.10;5.22;;;;;;;27.15;32.22;97643.84;4884348;29;20032;-80
2021/05/11 05:44:06;;;;;;;39.15;5.65;;;;;;;29.14;29.69;97648.47;4882648;29;20045;-78
2021/05/11 05:46:32;;;;;;;30.83;5.47;;;;;;;30.61;27.57;97647.94;4889012;29;20044;-80
2021/05/11 05:48:58;;;;;;;15.70;4.70;;;;;;;31.73;26.29;97650.06;4881012;29;20048;-80
2021/05/11 05:51:24;;;;;;;13.18;4.70;;;;;;;32.96;24.61;97653.66;4879968;29;20465;-81
2021/05/11 05:53:50;;;;;;;7.93;3.80;;;;;;;31.72;25.46;97650.31;4891473;29;20055;-80
2021/05/11 05:56:18;;;;;;;29.85;6.00;;;;;;;31.72;25.46;97655.84;4866445;29;20483;-79
2021/05/11 05:58:44;;;;;;;7.45;4.10;;;;;;;30.55;26.46;97646.06;4882696;29;20036;-80
2021/05/11 06:01:10;;;;;;;13.88;4.35;;;;;;;30.81;26.57;97647.03;4882786;29;20029;-81
2021/05/11 06:06:04;;;;;;;12.90;3.80;;;;;;;33.18;23.33;97635.47;4864482;29;20557;-81
2021/05/11 06:08:30;;;;;;;6.75;3.70;;;;;;;31.86;24.51;97629.72;4863672;29;20085;-86
2021/05/11 06:11:02;;;;;;;32.65;6.53;;;;;;;31.29;25.38;97637.19;4861599;29;20032;-89
2021/05/11 06:13:36;;;;;;;11.80;4.25;;;;;;;28.73;28.19;97634.78;4856004;29;20041;-88
2021/05/11 06:18:47;;;;;;;9.45;3.72;;;;;;;30.75;26.19;97636.84;4866187;29;20044;-79
2021/05/11 06:21:13;;;;;;;9.38;3.42;;;;;;;31.39;25.50;97629.25;4880276;29;20036;-80
2021/05/11 06:23:38;;;;;;;24.67;4.50;;;;;;;30.67;26.15;97628.81;4878280;29;20033;-79
2021/05/11 06:26:04;;;;;;;39.13;5.45;;;;;;;30.52;26.69;97632.69;4862268;29;20041;-80
2021/05/11 06:28:32;;;;;;;18.65;4.95;;;;;;;32.32;24.57;97627.34;4847456;29;20116;-80
2021/05/11 06:30:57;;;;;;;30.60;7.07;;;;;;;32.49;24.88;97616.50;4863087;29;20044;-80
2021/05/11 06:33:23;;;;;;;6.47;4.28;;;;;;;32.40;24.25;97615.09;4862778;29;20204;-79
2021/05/11 06:35:52;;;;;;;20.70;5.85;;;;;;;33.54;23.34;97620.59;4874449;29;20025;-79
2021/05/11 06:38:17;;;;;;;19.77;5.38;;;;;;;34.51;22.39;97603.25;4866352;29;20127;-79
2021/05/11 06:40:43;;;;;;;45.08;6.28;;;;;;;34.85;21.68;97610.63;4881181;29;20111;-79
2021/05/11 06:43:08;;;;;;;22.77;5.85;;;;;;;35.48;21.76;97604.06;4881299;29;20416;-79
2021/05/11 06:48:22;;;;;;;13.77;5.43;;;;;;;33.72;22.93;97604.72;4876562;29;20033;-79
2021/05/11 06:53:41;;;;;;;11.68;4.45;;;;;;;31.86;25.15;97607.59;4864774;29;20041;-79
2021/05/11 06:56:09;;;;;;;16.05;4.20;;;;;;;32.98;24.59;97613.50;4862930;29;20405;-80
2021/05/11 06:58:35;;;;;;;10.98;4.32;;;;;;;34.14;23.02;97610.19;4862585;29;20112;-79
2021/05/11 07:01:01;;;;;;;13.93;3.92;;;;;;;33.39;23.76;97609.09;4862429;29;20169;-79
2021/05/11 07:03:27;;;;;;;10.93;4.28;;;;;;;33.08;23.92;97612.97;4846918;29;20044;-79
2021/05/11 07:05:53;;;;;;;6.75;4.72;;;;;;;33.45;24.22;97600.66;4846589;29;20123;-79
2021/05/11 07:08:29;;;;;;;12.10;3.65;;;;;;;33.74;23.59;97594.22;4876636;29;20036;-79
2021/05/11 07:11:01;;;;;;;10.20;3.78;;;;;;;34.83;23.01;97606.41;4897398;29;20036;-78
2021/05/11 07:13:26;;;;;;;;;;;;;;;35.00;21.82;97600.91;4874382;29;20490;-78
2021/05/11 07:15:52;;;;;;;7.22;4.10;;;;;;;33.61;23.28;97601.94;4865154;29;19915;-78
2021/05/11 07:18:19;;;;;;;14.18;4.68;;;;;;;34.09;22.79;97598.91;4874148;29;20029;-78
2021/05/11 07:20:50;;;;;;;17.20;6.88;;;;;;;32.15;25.84;97590.25;4861672;29;20033;-78
2021/05/11 07:23:21;;;;;;;6.65;4.13;;;;;;;32.49;23.94;97595.19;4862174;29;20033;-78
2021/05/11 07:31:03;;;;;;;10.27;3.80;;;;;;;33.75;23.06;97583.94;4862172;29;20048;-78
2021/05/11 07:33:35;;;;;;;11.13;4.00;;;;;;;34.60;21.91;97593.47;4862126;29;20025;-78
2021/05/11 07:36:01;;;;;;;12.13;3.28;;;;;;;34.46;21.33;97586.44;4889223;29;20028;-79
2021/05/11 07:38:26;;;;;;;5.05;3.22;;;;;;;34.33;21.04;97573.66;4864771;29;20036;-79
2021/05/11 07:40:52;;;;;;;9.88;3.33;;;;;;;35.06;20.89;97583.22;4877489;29;20028;-78
2021/05/11 07:43:20;;;;;;;23.77;3.75;;;;;;;33.77;21.14;97571.53;4867686;29;20047;-78
2021/05/11 08:02:03;;;;;;;68.22;4.95;;;;;;;34.92;20.81;97567.97;4871362;29;20036;-79
2021/05/11 08:18:08;;;;;;;24.77;4.55;;;;;;;36.78;20.14;97573.75;4878408;29;20036;-80
2021/05/11 08:28:36;;;;;;;10.75;3.30;;;;;;;38.62;18.53;97563.88;4882733;29;20099;-76
2021/05/11 08:31:02;;;;;;;31.02;3.72;;;;;;;38.19;18.86;97565.88;4880013;29;20033;-76
2021/05/11 08:33:28;;;;;;;16.38;3.47;;;;;;;37.79;19.30;97566.41;4864573;29;20040;-77
2021/05/11 08:35:53;;;;;;;44.10;3.60;;;;;;;35.73;20.78;97554.41;4880024;29;20025;-76
2021/05/11 08:38:19;;;;;;;10.65;2.92;;;;;;;36.58;20.48;97570.72;4865926;29;20035;-76
2021/05/11 08:40:44;;;;;;;8.52;2.38;;;;;;;36.38;21.77;97565.69;4880032;29;20025;-76
2021/05/11 08:43:32;;;;;;;8.73;2.45;;;;;;;36.25;19.88;97565.22;4868585;29;20028;-75
2021/05/11 08:46:01;;;;;;;3.38;2.70;;;;;;;35.09;20.48;97549.38;4855425;29;20044;-76
2021/05/11 08:48:27;;;;;;;10.20;3.03;;;;;;;36.47;21.66;97568.03;4858044;29;20025;-77
2021/05/11 08:51:16;;;;;;;24.42;3.97;;;;;;;37.17;20.22;97568.06;4845808;29;20028;-76
2021/05/11 09:27:12;;;;;;;4.78;2.15;;;;;;;37.61;17.59;97508.19;4877268;29;20029;-77
2021/05/11 10:39:24;;;;;;;5.57;2.00;;;;;;;39.77;16.08;97489.63;4871936;29;20169;-77
2021/05/11 10:42:24;;;;;;;10.68;1.83;;;;;;;40.24;14.99;97475.22;4879178;29;20062;-78
2021/05/11 10:47:34;;;;;;;4.45;1.88;;;;;;;37.44;19.14;97479.50;4871990;29;20037;-78
2021/05/11 10:49:59;;;;;;;4.88;2.10;;;;;;;38.01;17.85;97478.84;4871227;29;20041;-78
2021/05/11 10:52:37;;;;;;;5.00;2.95;;;;;;;40.50;16.60;97486.03;4845139;29;20033;-78
2021/05/11 10:55:15;;;;;;;8.88;2.35;;;;;;;41.34;15.73;97484.16;4845082;29;20056;-78
2021/05/11 11:03:16;;;;;;;17.55;2.28;;;;;;;39.47;17.18;97459.66;4880053;29;20071;-78
2021/05/11 11:05:44;;;;;;;8.20;2.10;;;;;;;39.64;16.79;97463.00;4870864;29;20529;-78
2021/05/11 11:08:34;;;;;;;7.97;2.25;;;;;;;39.91;16.26;97457.91;4879690;29;20182;-77
2021/05/11 11:11:20;;;;;;;6.10;2.03;;;;;;;39.02;16.59;97450.13;4879383;29;20029;-77
2021/05/11 11:13:51;;;;;;;3.05;1.75;;;;;;;38.99;17.23;97453.47;4872092;29;20040;-76
2021/05/11 11:16:18;;;;;;;9.27;2.40;;;;;;;39.73;17.09;97452.91;4896883;29;20024;-77
2021/05/11 11:18:44;;;;;;;7.45;1.98;;;;;;;37.81;17.68;97446.84;4865924;29;20040;-77
2021/05/11 11:23:54;;;;;;;3.63;2.33;;;;;;;38.23;17.58;97443.16;4881664;29;20089;-77
2021/05/11 11:26:31;;;;;;;4.25;2.03;;;;;;;38.51;17.26;97437.13;4857677;29;20029;-77
2021/05/11 11:29:05;;;;;;;6.15;1.90;;;;;;;38.37;17.65;97435.97;4865578;29;20463;-77
2021/05/11 11:31:33;;;;;;;75.05;5.97;;;;;;;38.62;16.60;97436.03;4880707;29;20033;-78
2021/05/11 11:34:33;;;;;;;3.58;1.80;;;;;;;38.30;17.48;97440.97;4881242;29;20496;-78
2021/05/11 11:37:01;;;;;;;17.55;2.25;;;;;;;38.67;16.75;97432.44;4873547;29;20157;-78
2021/05/11 11:39:33;;;;;;;2.75;1.80;;;;;;;37.97;16.94;97429.09;4849909;29;20033;-78
2021/05/11 11:42:06;;;;;;;4.63;1.95;;;;;;;37.98;18.30;97433.56;4866685;29;20032;-77
2021/05/11 11:44:39;;;;;;;9.02;2.08;;;;;;;38.91;16.87;97431.66;4862088;29;20064;-77
2021/05/11 11:47:11;;;;;;;6.65;2.20;;;;;;;39.10;17.73;97431.94;4863377;29;20073;-77
2021/05/11 11:49:41;;;;;;;5.10;1.80;;;;;;;39.09;16.50;97419.06;4846782;29;20036;-77
2021/05/11 11:52:18;;;;;;;4.55;1.85;;;;;;;40.12;16.84;97419.44;4877407;29;20135;-77
2021/05/11 12:00:04;;;;;;;6.20;1.60;;;;;;;41.14;14.70;97417.75;4877790;29;20043;-77
2021/05/11 12:02:29;;;;;;;3.15;1.50;;;;;;;41.10;14.90;97411.06;4864943;29;20088;-79
2021/05/11 12:04:55;;;;;;;5.10;1.60;;;;;;;40.91;15.10;97402.47;4851669;29;20032;-78
2021/05/11 12:07:23;;;;;;;7.60;2.33;;;;;;;41.23;16.91;97421.59;4855145;29;20119;-78
2021/05/11 12:09:49;;;;;;;6.80;1.60;;;;;;;40.89;15.86;97410.31;4852843;29;20033;-78
2021/05/11 12:12:16;;;;;;;8.18;2.45;;;;;;;40.43;16.46;97408.91;4869362;29;20041;-78
2021/05/11 12:14:42;;;;;;;2.80;1.75;;;;;;;40.00;15.02;97402.94;4857805;29;20501;-78
2021/05/11 12:17:08;;;;;;;4.47;1.70;;;;;;;39.77;15.45;97397.16;4880493;29;20099;-78
2021/05/11 12:19:34;;;;;;;3.97;1.95;;;;;;;39.86;16.27;97393.47;4849318;29;21071;-78
2021/05/11 12:22:02;;;;;;;3.25;1.70;;;;;;;39.93;15.17;97391.19;4851005;29;20096;-78
2021/05/11 12:24:29;;;;;;;3.15;1.90;;;;;;;40.00;15.48;97376.88;4861453;29;20092;-78
2021/05/11 12:27:11;;;;;;;5.50;1.80;;;;;;;39.33;17.08;97371.72;4861815;29;20136;-78
2021/05/11 12:29:37;;;;;;;6.90;2.10;;;;;;;39.59;16.95;97383.72;4861524;29;20032;-78
2021/05/11 12:32:03;;;;;;;6.03;1.42;;;;;;;39.01;15.73;97372.84;4846037;29;20029;-76
2021/05/11 12:34:30;;;;;;;13.90;1.73;;;;;;;38.86;16.04;97367.25;4855287;29;20405;-76
2021/05/11 12:37:01;;;;;;;7.15;1.63;;;;;;;39.32;17.08;97378.44;4876746;29;20025;-77
2021/05/11 12:39:52;;;;;;;2.65;1.40;;;;;;;38.63;16.31;97358.56;4869051;29;20032;-77
2021/05/11 12:42:22;;;;;;;3.33;1.50;;;;;;;36.69;17.90;97354.16;4863948;29;20036;-76
2021/05/11 12:45:15;;;;;;;2.55;1.48;;;;;;;37.09;17.55;97354.50;4849256;29;20056;-77
2021/05/11 12:47:46;;;;;;;3.92;1.67;;;;;;;36.39;17.52;97347.16;4861335;29;20036;-77
2021/05/11 12:50:15;;;;;;;4.47;2.08;;;;;;;37.88;16.90;97354.41;4875123;29;20033;-76
2021/05/11 12:52:41;;;;;;;4.68;1.50;;;;;;;36.79;16.97;97332.75;4863729;29;20037;-76
2021/05/11 12:55:16;;;;;;;6.53;1.63;;;;;;;36.69;17.25;97345.78;4863819;29;20032;-77
2021/05/11 12:57:55;;;;;;;2.70;1.88;;;;;;;36.72;17.93;97337.75;4861893;29;20033;-77
2021/05/11 13:00:41;;;;;;;5.18;1.80;;;;;;;37.19;16.22;97320.25;4861442;29;20029;-78
2021/05/11 13:03:32;;;;;;;3.50;1.60;;;;;;;37.62;16.03;97324.69;4864885;29;20041;-78
2021/05/11 13:16:53;;;;;;;28.52;2.53;;;;;;;35.19;17.67;97310.31;4875739;29;20010;-77
2021/05/11 13:35:19;;;;;;;83.63;4.20;;;;;;;31.47;22.24;97304.53;4864411;29;20493;-77
2021/05/11 13:37:45;;;;;;;17.92;3.70;;;;;;;31.23;23.67;97306.31;4872455;29;20105;-77
2021/05/11 13:40:11;;;;;;;10.60;1.92;;;;;;;30.38;22.75;97290.56;4892777;29;20032;-78
2021/05/11 13:42:37;;;;;;;5.63;1.58;;;;;;;29.80;23.52;97293.53;4871633;29;20112;-77
2021/05/11 13:45:07;;;;;;;7.55;1.70;;;;;;;29.46;25.92;97292.03;4841801;29;800202;-76
2021/05/11 13:47:33;;;;;;;6.05;1.77;;;;;;;29.27;24.61;97292.97;4851831;29;20120;-77
2021/05/11 13:50:01;;;;;;;25.20;3.10;;;;;;;29.27;24.89;97295.72;4855779;29;20143;-76
2021/05/11 13:52:27;;;;;;;3.97;1.80;;;;;;;29.00;24.70;97283.09;4856816;29;20412;-77
2021/05/11 13:54:57;;;;;;;3.95;1.52;;;;;;;28.65;24.73;97287.19;4848356;29;20132;-77
2021/05/11 14:02:54;;;;;;;43.08;3.60;;;;;;;27.78;26.10;97279.97;4878706;29;20032;-76
2021/05/11 14:05:20;;;;;;;6.57;1.58;;;;;;;27.82;26.86;97283.16;4863125;29;20529;-76
2021/05/11 14:07:46;;;;;;;14.38;2.33;;;;;;;27.89;26.96;97282.13;4862488;29;20037;-76
2021/05/11 14:10:11;;;;;;;25.77;2.42;;;;;;;27.94;26.99;97275.97;4879991;29;20092;-76
2021/05/11 14:12:37;;;;;;;9.30;2.67;;;;;;;28.06;26.74;97277.06;4863280;29;20176;-81
2021/05/11 14:15:05;;;;;;;3.17;1.60;;;;;;;27.96;27.76;97282.13;4851949;29;20025;-81
2021/05/11 14:17:31;;;;;;;2.88;1.60;;;;;;;27.77;27.26;97271.94;4881996;29;20493;-81
2021/05/11 14:19:56;;;;;;;9.43;1.65;;;;;;;27.69;27.17;97266.63;4871368;29;20063;-81
2021/05/11 14:22:23;;;;;;;5.57;1.60;;;;;;;27.74;27.74;97270.47;4849096;29;20116;-86
2021/05/11 14:24:49;;;;;;;27.92;2.80;;;;;;;27.71;27.91;97259.88;4851195;29;20048;-86
2021/05/11 14:27:15;;;;;;;20.90;2.20;;;;;;;27.64;27.72;97259.03;4853260;29;20033;-85
2021/05/11 14:29:41;;;;;;;8.00;2.60;;;;;;;27.59;27.76;97256.06;4848744;29;20039;-87
2021/05/11 14:32:08;;;;;;;8.35;1.92;;;;;;;27.55;27.55;97256.66;4849681;29;20033;-87
2021/05/11 14:34:34;;;;;;;4.10;1.35;;;;;;;27.53;27.29;97251.41;4849614;29;20112;-88
2021/05/11 14:36:59;;;;;;;4.82;1.70;;;;;;;27.45;27.50;97255.19;4850651;29;20115;-88
2021/05/11 14:39:25;;;;;;;7.55;1.83;;;;;;;27.30;27.99;97239.88;4850748;29;20075;-86
2021/05/11 14:41:54;;;;;;;3.70;1.80;;;;;;;27.31;28.22;97247.94;4852340;29;20033;-87
2021/05/11 14:44:23;;;;;;;11.35;1.70;;;;;;;27.08;28.81;97230.94;4867639;29;20064;-89
2021/05/11 14:46:50;;;;;;;13.70;1.90;;;;;;;27.13;29.30;97244.91;4865728;29;20166;-88
2021/05/11 14:49:16;;;;;;;7.82;1.80;;;;;;;27.15;29.13;97242.81;4851809;29;20120;-88
2021/05/11 14:51:42;;;;;;;8.38;1.85;;;;;;;26.99;28.86;97231.31;4850594;29;20032;-89
2021/05/11 14:54:09;;;;;;;6.03;1.70;;;;;;;27.02;27.87;97230.91;4867465;29;20043;-88
2021/05/11 14:56:39;;;;;;;8.73;2.10;;;;;;;26.97;28.40;97225.19;4852539;29;20037;-89
2021/05/11 14:59:06;;;;;;;53.42;3.67;;;;;;;26.88;28.26;97214.41;4867653;29;20028;-89
2021/05/11 15:01:33;;;;;;;16.17;2.03;;;;;;;26.85;28.53;97216.72;4854458;29;20025;-87
2021/05/11 15:04:00;;;;;;;11.05;3.35;;;;;;;26.81;32.44;97218.16;4860191;29;20024;-90
2021/05/11 15:06:26;;;;;;;11.13;3.15;;;;;;;26.76;29.21;97220.66;4856589;29;20037;-90
2021/05/11 15:08:55;;;;;;;12.73;4.97;;;;;;;26.64;30.23;97225.03;4871302;29;20040;-90
2021/05/11 15:11:27;;;;;;;241.43;134.77;;;;;;;26.50;28.93;97199.41;4870986;29;20465;-89
2021/05/11 15:13:55;;;;;;;15.05;3.72;;;;;;;26.44;29.81;97193.88;4871433;29;20045;-91
2021/05/11 15:19:55;;;;;;;7.57;1.83;;;;;;;26.25;29.62;97201.78;4902003;29;20028;-90
2021/05/11 15:22:21;;;;;;;2.53;2.03;;;;;;;26.19;30.30;97205.34;4873298;29;20037;-89
2021/05/11 15:24:51;;;;;;;3.72;2.13;;;;;;;26.03;30.42;97189.16;4856909;29;20033;-90
2021/05/11 15:27:18;;;;;;;16.92;2.97;;;;;;;25.98;30.78;97193.56;4853787;29;20061;-89
2021/05/11 15:29:45;;;;;;;5.50;3.00;;;;;;;25.80;30.90;97183.09;4857219;29;20112;-90
2021/05/11 15:32:39;;;;;;;12.00;3.10;;;;;;;25.75;31.04;97188.31;4852883;29;20061;-89
2021/05/11 15:35:07;;;;;;;6.93;3.10;;;;;;;25.62;31.50;97171.78;4859761;29;20039;-88
2021/05/11 15:37:33;;;;;;;8.05;2.60;;;;;;;25.55;32.01;97171.72;4885722;29;20483;-89
2021/05/11 15:39:58;;;;;;;2.38;1.95;;;;;;;25.59;31.55;97173.03;4860114;29;20116;-76
2021/05/11 15:42:24;;;;;;;8.52;3.22;;;;;;;25.53;31.68;97162.88;4848947;29;20048;-77
2021/05/11 15:44:49;;;;;;;8.70;2.75;;;;;;;25.41;32.09;97166.31;4860426;29;20140;-80
2021/05/11 15:47:15;;;;;;;10.55;2.78;;;;;;;25.34;32.83;97161.63;4877407;29;20456;-81
2021/05/11 15:49:45;;;;;;;9.07;2.90;;;;;;;25.34;33.14;97158.88;4865297;29;20034;-80
2021/05/11 15:52:10;;;;;;;8.60;2.40;;;;;;;25.23;32.75;97162.13;4877731;29;20051;-80
2021/05/11 15:54:36;;;;;;;28.35;3.78;;;;;;;25.14;33.96;97157.81;4861926;29;20040;-80
2021/05/11 15:57:02;;;;;;;9.20;2.90;;;;;;;25.02;33.57;97140.22;4870509;29;20072;-80
2021/05/11 15:59:27;;;;;;;6.75;2.40;;;;;;;24.99;33.14;97143.34;4844675;29;20416;-82
2021/05/11 16:01:53;;;;;;;6.30;2.40;;;;;;;24.99;33.36;97143.34;4855787;29;20405;-79
2021/05/11 16:04:19;;;;;;;5.25;2.40;;;;;;;24.89;33.70;97147.47;4854195;29;20041;-79